St Pierre — FIDX — position and weather

sailwx.info

Track history (hours):
 
Tides and Currents Weather Stations Pressure Air Temp Water Temp Dewpoint Dewpoint Depression Visibility Wind Speed Wind Dir Waves Ship Positions

St Pierre

Last reported at 2015-Apr-16 23:21 UTC. Time now 2015-Apr-19 10:59 UTC.
Position N 47°18' W 002°07'.

Length 84 m; draft 6.2 m.

Type: Cargo ship. MMSI: 228024800.

Date/timePositionNaut miles runAvg speedWind from/ knotsBaromVisibWave heightAir tempDewpointWater temp
2015-Apr-16 23:21N 47°18' W 002°07'15 1.3
2015-Apr-16 11:33N 47°06' W 002°20'1 0.4
2015-Apr-16 10:07N 47°06' W 002°21'0 0.4
2015-Apr-16 09:13N 47°05' W 002°21'0 0.2
2015-Apr-16 08:25N 47°06' W 002°21'1 0.8
2015-Apr-16 07:33N 47°05' W 002°21'1 0.5
2015-Apr-16 06:33N 47°05' W 002°21'1 1.0
2015-Apr-16 05:33N 47°06' W 002°21'1 0.6
2015-Apr-16 04:32N 47°06' W 002°21'0 0.0
2015-Apr-16 03:29N 47°06' W 002°21'0 0.0
2015-Apr-16 02:32N 47°06' W 002°21'0 0.0
2015-Apr-16 01:20N 47°06' W 002°21'0 0.0
2015-Apr-16 00:32N 47°07' W 002°21'0 0.0
2015-Apr-15 23:23N 47°07' W 002°21'0 0.0
2015-Apr-15 20:17N 47°07' W 002°21'0 0.0
2015-Apr-15 19:29N 47°07' W 002°21'7 7.0
2015-Apr-15 18:33N 47°13' W 002°17'1212.1
2015-Apr-15 17:33N 47°17' W 002°01'17 2.2
2015-Apr-15 09:33N 47°06' W 002°20'0 0.0
2015-Apr-15 08:18N 47°06' W 002°20'0 0.0
2015-Apr-15 07:33N 47°06' W 002°20'0 0.1
2015-Apr-15 06:33N 47°06' W 002°20'0 0.0
2015-Apr-15 05:27N 47°06' W 002°20'0 0.0
2015-Apr-15 04:30N 47°06' W 002°20'0 0.0
2015-Apr-15 03:33N 47°06' W 002°20'0 0.0
2015-Apr-15 02:33N 47°06' W 002°20'0 0.0
2015-Apr-15 01:33N 47°06' W 002°20'0 0.0
2015-Apr-15 00:33N 47°06' W 002°20'0 0.0
2015-Apr-14 23:22N 47°06' W 002°20'1 1.2
2015-Apr-14 22:33N 47°06' W 002°21'31 2.3
2015-Apr-14 09:19N 47°12' W 001°37'0 0.0
2015-Apr-14 08:32N 47°12' W 001°37'0 0.0
2015-Apr-14 07:33N 47°12' W 001°37'0 0.0
2015-Apr-14 04:20N 47°12' W 001°37'0 0.0
2015-Apr-13 17:25N 47°12' W 001°37'0 0.0
2015-Apr-13 10:31N 47°12' W 001°37'0 0.0
2015-Apr-13 09:30N 47°12' W 001°37'0 0.0
2015-Apr-13 08:33N 47°12' W 001°37'0 0.0
2015-Apr-13 07:31N 47°12' W 001°37'0 0.0
2015-Apr-13 06:08N 47°12' W 001°37'0 0.0
2015-Apr-13 04:23N 47°12' W 001°37'0 0.0
2015-Apr-13 03:32N 47°12' W 001°37'0 0.0
2015-Apr-13 01:07N 47°12' W 001°37'0 0.0
2015-Apr-13 00:15N 47°12' W 001°37'0 0.0
2015-Apr-12 23:33N 47°12' W 001°37'0 0.0
2015-Apr-12 22:30N 47°12' W 001°37'0 0.0
2015-Apr-12 20:26N 47°12' W 001°37'0 0.0
2015-Apr-12 18:22N 47°12' W 001°37'0 0.0
2015-Apr-12 15:15N 47°12' W 001°37'0 0.0
2015-Apr-12 14:28N 47°12' W 001°37'0 0.0
2015-Apr-12 13:33N 47°12' W 001°37'0 0.0
2015-Apr-12 12:26N 47°12' W 001°37'0 0.0
2015-Apr-12 11:13N 47°12' W 001°37'0 0.0
2015-Apr-12 10:33N 47°12' W 001°37'0 0.0
2015-Apr-12 09:32N 47°12' W 001°37'0 0.0
2015-Apr-12 08:32N 47°12' W 001°37'0 0.0
2015-Apr-12 07:33N 47°12' W 001°37'0 0.0
2015-Apr-12 06:33N 47°12' W 001°37'0 0.0
2015-Apr-12 05:33N 47°12' W 001°37'0 0.0
2015-Apr-12 04:33N 47°12' W 001°37'0 0.0
2015-Apr-12 03:33N 47°12' W 001°37'0 0.0
2015-Apr-12 02:23N 47°12' W 001°37'0 0.0
2015-Apr-12 01:24N 47°12' W 001°37'0 0.0
2015-Apr-11 20:27N 47°12' W 001°37'1 0.0
2015-Apr-10 08:11N 47°12' W 001°38'5 7.4
2015-Apr-10 07:33N 47°12' W 001°45'9 9.3
2015-Apr-10 06:33N 47°17' W 001°57'10 9.3
2015-Apr-10 05:30N 47°16' W 002°11'1010.9
2015-Apr-10 04:33N 47°08' W 002°21'2 2.3
2015-Apr-10 03:33N 47°06' W 002°21'0 0.5
2015-Apr-10 02:33N 47°06' W 002°21'0 0.2
2015-Apr-10 01:33N 47°06' W 002°21'0 0.2
2015-Apr-10 00:33N 47°06' W 002°21'0 0.0
2015-Apr-09 23:33N 47°06' W 002°21'10 9.7
2015-Apr-09 22:33N 47°15' W 002°14'1111.2
2015-Apr-09 21:33N 47°17' W 001°58'1211.4
2015-Apr-09 20:33N 47°12' W 001°43'27 5.1
2015-Apr-09 15:18N 47°08' W 002°22'1 1.8
2015-Apr-09 14:29N 47°06' W 002°21'0 0.4
2015-Apr-09 13:32N 47°06' W 002°21'30 4.3
2015-Apr-09 06:29N 47°12' W 001°38'17 0.8
2015-Apr-08 07:31N 47°18' W 002°02'9 9.3
2015-Apr-08 06:33N 47°15' W 002°14'1010.0
2015-Apr-08 05:31N 47°06' W 002°21'  
Track history (hours):
 
Tides and Currents Weather Stations Pressure Air Temp Water Temp Dewpoint Dewpoint Depression Visibility Wind Speed Wind Dir Waves Ship Positions

St Pierre

Last reported at 2015-Apr-16 23:21 UTC. Time now 2015-Apr-19 10:59 UTC.
Position N 47°18' W 002°07'.

Length 84 m; draft 6.2 m.

Type: Cargo ship. MMSI: 228024800.

Date/timePositionNaut miles runAvg speedWind from/ knotsBaromVisibWave heightAir tempDewpointWater temp
2015-Apr-16 23:21N 47°18' W 002°07'15 1.3
2015-Apr-16 11:33N 47°06' W 002°20'1 0.4
2015-Apr-16 10:07N 47°06' W 002°21'0 0.4
2015-Apr-16 09:13N 47°05' W 002°21'0 0.2
2015-Apr-16 08:25N 47°06' W 002°21'1 0.8
2015-Apr-16 07:33N 47°05' W 002°21'1 0.5
2015-Apr-16 06:33N 47°05' W 002°21'1 1.0
2015-Apr-16 05:33N 47°06' W 002°21'1 0.6
2015-Apr-16 04:32N 47°06' W 002°21'0 0.0
2015-Apr-16 03:29N 47°06' W 002°21'0 0.0
2015-Apr-16 02:32N 47°06' W 002°21'0 0.0
2015-Apr-16 01:20N 47°06' W 002°21'0 0.0
2015-Apr-16 00:32N 47°07' W 002°21'0 0.0
2015-Apr-15 23:23N 47°07' W 002°21'0 0.0
2015-Apr-15 20:17N 47°07' W 002°21'0 0.0
2015-Apr-15 19:29N 47°07' W 002°21'7 7.0
2015-Apr-15 18:33N 47°13' W 002°17'1212.1
2015-Apr-15 17:33N 47°17' W 002°01'17 2.2
2015-Apr-15 09:33N 47°06' W 002°20'0 0.0
2015-Apr-15 08:18N 47°06' W 002°20'0 0.0
2015-Apr-15 07:33N 47°06' W 002°20'0 0.1
2015-Apr-15 06:33N 47°06' W 002°20'0 0.0
2015-Apr-15 05:27N 47°06' W 002°20'0 0.0
2015-Apr-15 04:30N 47°06' W 002°20'0 0.0
2015-Apr-15 03:33N 47°06' W 002°20'0 0.0
2015-Apr-15 02:33N 47°06' W 002°20'0 0.0
2015-Apr-15 01:33N 47°06' W 002°20'0 0.0
2015-Apr-15 00:33N 47°06' W 002°20'0 0.0
2015-Apr-14 23:22N 47°06' W 002°20'1 1.2
2015-Apr-14 22:33N 47°06' W 002°21'31 2.3
2015-Apr-14 09:19N 47°12' W 001°37'0 0.0
2015-Apr-14 08:32N 47°12' W 001°37'0 0.0
2015-Apr-14 07:33N 47°12' W 001°37'0 0.0
2015-Apr-14 04:20N 47°12' W 001°37'0 0.0
2015-Apr-13 17:25N 47°12' W 001°37'0 0.0
2015-Apr-13 10:31N 47°12' W 001°37'0 0.0
2015-Apr-13 09:30N 47°12' W 001°37'0 0.0
2015-Apr-13 08:33N 47°12' W 001°37'0 0.0
2015-Apr-13 07:31N 47°12' W 001°37'0 0.0
2015-Apr-13 06:08N 47°12' W 001°37'0 0.0
2015-Apr-13 04:23N 47°12' W 001°37'0 0.0
2015-Apr-13 03:32N 47°12' W 001°37'0 0.0
2015-Apr-13 01:07N 47°12' W 001°37'0 0.0
2015-Apr-13 00:15N 47°12' W 001°37'0 0.0
2015-Apr-12 23:33N 47°12' W 001°37'0 0.0
2015-Apr-12 22:30N 47°12' W 001°37'0 0.0
2015-Apr-12 20:26N 47°12' W 001°37'0 0.0
2015-Apr-12 18:22N 47°12' W 001°37'0 0.0
2015-Apr-12 15:15N 47°12' W 001°37'0 0.0
2015-Apr-12 14:28N 47°12' W 001°37'0 0.0
2015-Apr-12 13:33N 47°12' W 001°37'0 0.0
2015-Apr-12 12:26N 47°12' W 001°37'0 0.0
2015-Apr-12 11:13N 47°12' W 001°37'0 0.0
2015-Apr-12 10:33N 47°12' W 001°37'0 0.0
2015-Apr-12 09:32N 47°12' W 001°37'0 0.0
2015-Apr-12 08:32N 47°12' W 001°37'0 0.0
2015-Apr-12 07:33N 47°12' W 001°37'0 0.0
2015-Apr-12 06:33N 47°12' W 001°37'0 0.0
2015-Apr-12 05:33N 47°12' W 001°37'0 0.0
2015-Apr-12 04:33N 47°12' W 001°37'0 0.0
2015-Apr-12 03:33N 47°12' W 001°37'0 0.0
2015-Apr-12 02:23N 47°12' W 001°37'0 0.0
2015-Apr-12 01:24N 47°12' W 001°37'0 0.0
2015-Apr-11 20:27N 47°12' W 001°37'1 0.0
2015-Apr-10 08:11N 47°12' W 001°38'5 7.4
2015-Apr-10 07:33N 47°12' W 001°45'9 9.3
2015-Apr-10 06:33N 47°17' W 001°57'10 9.3
2015-Apr-10 05:30N 47°16' W 002°11'1010.9
2015-Apr-10 04:33N 47°08' W 002°21'2 2.3
2015-Apr-10 03:33N 47°06' W 002°21'0 0.5
2015-Apr-10 02:33N 47°06' W 002°21'0 0.2
2015-Apr-10 01:33N 47°06' W 002°21'0 0.2
2015-Apr-10 00:33N 47°06' W 002°21'0 0.0
2015-Apr-09 23:33N 47°06' W 002°21'10 9.7
2015-Apr-09 22:33N 47°15' W 002°14'1111.2
2015-Apr-09 21:33N 47°17' W 001°58'1211.4
2015-Apr-09 20:33N 47°12' W 001°43'27 5.1
2015-Apr-09 15:18N 47°08' W 002°22'1 1.8
2015-Apr-09 14:29N 47°06' W 002°21'0 0.4
2015-Apr-09 13:32N 47°06' W 002°21'30 4.3
2015-Apr-09 06:29N 47°12' W 001°38'17 0.8
2015-Apr-08 07:31N 47°18' W 002°02'9 9.3
2015-Apr-08 06:33N 47°15' W 002°14'1010.0
2015-Apr-08 05:31N 47°06' W 002°21'  

Dump ship's entire track history